KGDJ

Details ICAO KGDJ
Name GRANBURY MUNI
Region United States
Timezone America/Chicago (UTC-6.0)
Plans Departing 0
Arriving 0
Stats Elevation 778 ft / 237 m (AMSL)
Location 32.444418° -97.816933°
Runways 1
Magnetic Variation 3.986° E
Sunrise 2017-02-22 13:07:58 UTC / 2017-02-22 07:07:58 Local
Sunset 2017-02-23 00:24:24 UTC / 2017-02-22 18:24:24 Local
Advertisement - Login to hide

Runways

ID Width Length Bearing (true) Bearing (mag) Surface Threshold Offset Overrun Length
14 60 ft / 18 m 3,610 ft / 1,100 m 149.78° 145.79° Asphalt 0 ft / 0 m 0 ft / 0 m
32 60 ft / 18 m 3,610 ft / 1,100 m 329.78° 325.79° Asphalt 0 ft / 0 m 0 ft / 0 m

Map

Weather

Temperature
Clouds and Precipitation
Forecast for 2017-02-23 00:00 UTC. Updated 8 minutes ago
Winds

METAR

KGDJ 221920Z AUTO 17007KT 10SM CLR 28/04 A2983 RMK AO2 T02810037

TAF

Not found

Frequencies

Recorded 118.92 MHz AWOS 3
Unicom 123.00 MHz CTAF/UNICOM
Warning: Do not use this data for real-world aviation or navigation. No guarantee of current accuracy is given.